createdAt,value
2022-09-15T00:00:01.081Z,13
2022-09-15T00:01:07.474Z,12.9
2022-09-15T00:02:13.875Z,12.8
2022-09-15T00:03:20.268Z,12.7
2022-09-15T00:04:26.664Z,12.6
2022-09-15T00:05:33.045Z,12.6
2022-09-15T00:06:39.449Z,12.5
2022-09-15T00:07:45.832Z,12.4
2022-09-15T00:08:52.219Z,12.4
2022-09-15T00:09:58.612Z,12.4
2022-09-15T00:11:05.006Z,12.3
2022-09-15T00:12:11.409Z,12.2
2022-09-15T00:13:17.798Z,12.1
2022-09-15T00:14:24.239Z,12.1
2022-09-15T00:15:30.588Z,12.1
2022-09-15T00:16:36.988Z,12.2
2022-09-15T00:17:43.374Z,12.2
2022-09-15T00:18:49.791Z,12.2
2022-09-15T00:19:56.161Z,12.1
2022-09-15T00:21:02.560Z,12.1
2022-09-15T00:22:09.090Z,12
2022-09-15T00:23:15.603Z,12
2022-09-15T00:24:22.117Z,11.9
2022-09-15T00:25:28.638Z,11.9
2022-09-15T00:26:35.145Z,11.8
2022-09-15T00:27:41.699Z,11.8
2022-09-15T00:28:48.168Z,11.8
2022-09-15T00:29:54.680Z,11.8
2022-09-15T00:31:01.198Z,11.7
2022-09-15T00:32:07.706Z,11.7
2022-09-15T00:33:14.218Z,11.8
2022-09-15T00:34:20.736Z,11.7
2022-09-15T00:35:27.266Z,11.7
2022-09-15T00:37:16.596Z,11.6
2022-09-15T00:38:23.355Z,11.6
2022-09-15T00:39:30.114Z,11.5
2022-09-15T00:40:36.872Z,11.5
2022-09-15T00:41:43.613Z,11.4
2022-09-15T00:42:50.363Z,11.5
2022-09-15T00:43:57.119Z,11.5
2022-09-15T00:45:03.873Z,11.4
2022-09-15T00:46:10.634Z,11.4
2022-09-15T00:47:17.371Z,11.4
2022-09-15T00:48:24.129Z,11.4
2022-09-15T00:49:30.880Z,11.4
2022-09-15T00:50:37.637Z,11.4
2022-09-15T00:53:55.789Z,11.4
2022-09-15T00:55:34.528Z,11.3
2022-09-15T00:56:41.767Z,11.3
2022-09-15T00:57:48.991Z,11.2
2022-09-15T00:59:27.715Z,11.2
2022-09-15T01:01:06.483Z,11.1
2022-09-15T01:02:45.202Z,11.1
2022-09-15T01:04:23.934Z,11.1
2022-09-15T01:06:02.665Z,11.1
2022-09-15T01:07:41.406Z,11.2
2022-09-15T01:09:20.137Z,11.2
2022-09-15T01:10:58.871Z,11.2
2022-09-15T01:12:37.616Z,11.1
2022-09-15T01:14:17.368Z,11.1
2022-09-15T01:17:32.935Z,11.1
2022-09-15T01:18:39.331Z,11.4
2022-09-15T01:19:45.715Z,11.4
2022-09-15T01:20:52.116Z,11.3
2022-09-15T01:21:58.504Z,11.3
2022-09-15T01:23:04.920Z,11.3
2022-09-15T01:24:11.300Z,11.3
2022-09-15T01:25:17.685Z,11.2
2022-09-15T01:26:24.115Z,11.2
2022-09-15T01:27:30.485Z,11.1
2022-09-15T01:28:36.888Z,11.1
2022-09-15T01:29:43.280Z,11.1
2022-09-15T01:30:49.681Z,11.1
2022-09-15T01:31:56.075Z,11.1
2022-09-15T01:33:02.491Z,11.2
2022-09-15T01:34:08.901Z,11.2
2022-09-15T01:35:15.261Z,11.3
2022-09-15T01:36:21.654Z,11.3
2022-09-15T01:37:28.065Z,11.4
2022-09-15T01:38:34.450Z,11.5
2022-09-15T01:39:40.854Z,11.5
2022-09-15T01:40:47.247Z,11.5
2022-09-15T01:41:53.633Z,11.5
2022-09-15T01:43:00.050Z,11.6
2022-09-15T01:44:06.435Z,11.6
2022-09-15T01:45:12.966Z,11.7
2022-09-15T01:46:19.479Z,11.8
2022-09-15T01:47:25.993Z,11.8
2022-09-15T01:48:32.499Z,11.8
2022-09-15T01:49:39.013Z,11.8
2022-09-15T01:50:45.518Z,11.8
2022-09-15T01:51:52.028Z,11.8
2022-09-15T01:52:58.547Z,11.8
2022-09-15T01:54:05.109Z,11.9
2022-09-15T01:55:11.585Z,11.9
2022-09-15T01:56:18.097Z,12
2022-09-15T01:57:24.595Z,12
2022-09-15T01:58:31.119Z,12
2022-09-15T02:00:20.441Z,12
2022-09-15T02:01:27.202Z,12.1
2022-09-15T02:02:33.934Z,12.1
2022-09-15T02:03:40.690Z,12.2
2022-09-15T02:04:47.445Z,12.2
2022-09-15T02:05:54.188Z,12.3
2022-09-15T02:07:00.936Z,12.3
2022-09-15T02:08:07.694Z,12.3
2022-09-15T02:09:14.434Z,12.3
2022-09-15T02:10:21.198Z,12.3
2022-09-15T02:11:27.952Z,12.2
2022-09-15T02:12:34.688Z,12.2
2022-09-15T02:13:41.441Z,12.2
2022-09-15T02:16:59.591Z,12.2
2022-09-15T02:18:38.319Z,12.3
2022-09-15T02:19:45.552Z,12.3
2022-09-15T02:20:52.778Z,12.3
2022-09-15T02:22:31.500Z,12.3
2022-09-15T02:24:10.256Z,12.3
2022-09-15T02:25:48.958Z,12.4
2022-09-15T02:27:27.691Z,12.4
2022-09-15T02:29:06.425Z,12.4
2022-09-15T02:30:45.161Z,12.4
2022-09-15T02:32:23.890Z,12.4
2022-09-15T02:34:02.608Z,12.5
2022-09-15T02:35:41.418Z,12.5
2022-09-15T02:37:21.084Z,12.5
2022-09-15T02:40:36.617Z,12.6
2022-09-15T02:41:43.018Z,12.6
2022-09-15T02:42:49.399Z,12.6
2022-09-15T02:43:55.783Z,12.7
2022-09-15T02:45:02.182Z,12.7
2022-09-15T02:46:08.571Z,12.7
2022-09-15T02:47:14.973Z,12.7
2022-09-15T02:48:21.352Z,12.7
2022-09-15T02:49:27.776Z,12.7
2022-09-15T02:50:34.129Z,12.7
2022-09-15T02:51:40.526Z,12.7
2022-09-15T02:52:46.927Z,12.7
2022-09-15T02:53:53.322Z,12.8
2022-09-15T02:54:59.715Z,12.8
2022-09-15T02:56:06.117Z,12.8
2022-09-15T02:57:12.605Z,12.9
2022-09-15T02:58:18.902Z,12.8
2022-09-15T02:59:25.304Z,12.9
2022-09-15T03:00:31.699Z,12.9
2022-09-15T03:01:38.091Z,12.9
2022-09-15T03:02:44.487Z,12.9
2022-09-15T03:03:50.877Z,13
2022-09-15T03:04:57.264Z,13
2022-09-15T03:06:03.661Z,13
2022-09-15T03:07:10.043Z,13.1
2022-09-15T03:08:16.569Z,13.1
2022-09-15T03:09:23.096Z,13.1
2022-09-15T03:10:29.590Z,13
2022-09-15T03:11:36.109Z,13
2022-09-15T03:12:42.616Z,13.1
2022-09-15T03:13:49.133Z,13.1
2022-09-15T03:14:55.664Z,13.1
2022-09-15T03:16:02.167Z,13.1
2022-09-15T03:17:08.715Z,13.1
2022-09-15T03:18:15.211Z,13.1
2022-09-15T03:19:21.778Z,13.1
2022-09-15T03:20:28.262Z,13.1
2022-09-15T03:21:34.763Z,13.1
2022-09-15T03:23:24.107Z,13.1
2022-09-15T03:24:30.870Z,13.1
2022-09-15T03:25:37.617Z,13.1
2022-09-15T03:26:44.371Z,13.1
2022-09-15T03:27:51.127Z,13.1
2022-09-15T03:28:57.901Z,13.1
2022-09-15T03:30:04.649Z,13.1
2022-09-15T03:31:11.417Z,13.1
2022-09-15T03:32:18.157Z,13.1
2022-09-15T03:33:24.916Z,13.1
2022-09-15T03:34:31.653Z,13.1
2022-09-15T03:35:38.447Z,13.1
2022-09-15T03:36:45.180Z,13.1
2022-09-15T03:40:03.334Z,13.1
2022-09-15T03:41:42.065Z,13.1
2022-09-15T03:42:49.292Z,13
2022-09-15T03:43:56.521Z,13
2022-09-15T03:45:35.242Z,13
2022-09-15T03:47:13.989Z,12.9
2022-09-15T03:48:52.707Z,12.9
2022-09-15T03:50:31.440Z,12.9
2022-09-15T03:52:10.176Z,12.9
2022-09-15T03:53:48.903Z,13
2022-09-15T03:55:27.629Z,13
2022-09-15T03:57:06.415Z,12.9
2022-09-15T03:58:45.101Z,12.9
2022-09-15T04:00:24.950Z,13
2022-09-15T04:03:40.510Z,12.9
2022-09-15T04:04:47.013Z,12.9
2022-09-15T04:05:53.552Z,12.9
2022-09-15T04:07:00.098Z,12.9
2022-09-15T04:08:06.566Z,12.9
2022-09-15T04:09:13.067Z,13
2022-09-15T04:10:19.578Z,13
2022-09-15T04:11:26.164Z,13
2022-09-15T04:12:32.597Z,13
2022-09-15T04:13:39.110Z,13
2022-09-15T04:14:45.690Z,12.9
2022-09-15T04:15:52.149Z,13
2022-09-15T04:16:58.662Z,13
2022-09-15T04:18:05.161Z,13
2022-09-15T04:19:11.660Z,13
2022-09-15T04:20:18.180Z,13
2022-09-15T04:21:24.688Z,13
2022-09-15T04:22:31.221Z,13
2022-09-15T04:23:37.712Z,13
2022-09-15T04:24:44.218Z,13
2022-09-15T04:25:50.731Z,13
2022-09-15T04:26:57.243Z,13
2022-09-15T04:28:03.787Z,13
2022-09-15T04:29:10.281Z,13
2022-09-15T04:30:16.888Z,13
2022-09-15T04:31:23.543Z,13.1
2022-09-15T04:32:30.297Z,13
2022-09-15T04:33:37.037Z,13
2022-09-15T04:34:43.815Z,13
2022-09-15T04:35:50.550Z,13
2022-09-15T04:36:57.266Z,13
2022-09-15T04:38:04.037Z,13
2022-09-15T04:39:10.842Z,13
2022-09-15T04:40:17.507Z,13
2022-09-15T04:41:24.289Z,13.1
2022-09-15T04:42:31.005Z,13.1
2022-09-15T04:43:37.792Z,13.1
2022-09-15T04:44:44.530Z,13.1
2022-09-15T04:47:23.743Z,13.1
2022-09-15T04:49:02.474Z,13.1
2022-09-15T04:50:41.219Z,13.1
2022-09-15T04:52:19.952Z,13.1
2022-09-15T04:53:27.172Z,13.2
2022-09-15T04:54:34.408Z,13.2
2022-09-15T04:56:13.107Z,13.2
2022-09-15T04:57:51.824Z,13.2
2022-09-15T04:59:30.526Z,13.3
2022-09-15T05:01:09.231Z,13.3
2022-09-15T05:02:48.055Z,13.3
2022-09-15T05:04:26.659Z,13.3
2022-09-15T05:06:05.398Z,13.3
2022-09-15T05:09:55.181Z,13.4
2022-09-15T05:11:03.472Z,13.4
2022-09-15T05:14:20.865Z,13.4
2022-09-15T05:17:38.274Z,13.4
2022-09-15T05:20:55.683Z,13.4
2022-09-15T05:24:13.082Z,13.5
2022-09-15T05:27:30.503Z,13.6
2022-09-15T05:30:47.941Z,13.6
2022-09-15T05:34:05.476Z,13.7
2022-09-15T05:37:22.851Z,13.7
2022-09-15T05:40:40.310Z,13.8
2022-09-15T05:42:47.291Z,13.8
2022-09-15T05:43:55.884Z,13.8
2022-09-15T05:45:02.284Z,13.9
2022-09-15T05:46:08.715Z,13.9
2022-09-15T05:47:15.162Z,13.9
2022-09-15T05:48:21.582Z,13.9
2022-09-15T05:50:34.434Z,13.9
2022-09-15T05:51:40.866Z,13.9
2022-09-15T05:52:47.296Z,13.9
2022-09-15T05:53:53.726Z,13.9
2022-09-15T05:55:00.153Z,13.9
2022-09-15T05:56:06.587Z,13.9
2022-09-15T05:57:13.011Z,13.9
2022-09-15T05:58:19.438Z,13.9
2022-09-15T05:59:25.935Z,13.9
2022-09-15T06:00:32.334Z,13.9
2022-09-15T06:01:38.732Z,14
2022-09-15T06:02:45.148Z,14
2022-09-15T06:03:51.596Z,14
2022-09-15T06:04:58.034Z,14
2022-09-15T06:06:04.436Z,14
2022-09-15T06:07:10.861Z,14.1
2022-09-15T06:08:17.235Z,14.1
2022-09-15T06:09:23.634Z,14.1
2022-09-15T06:10:30.143Z,14.1
2022-09-15T06:11:36.773Z,14.1
2022-09-15T06:12:43.201Z,14.1
2022-09-15T06:13:49.731Z,14.2
2022-09-15T06:14:56.285Z,14.2
2022-09-15T06:16:02.868Z,14.2
2022-09-15T06:17:09.381Z,14.3
2022-09-15T06:18:15.943Z,14.3
2022-09-15T06:19:22.510Z,14.3
2022-09-15T06:20:29.045Z,14.4
2022-09-15T06:21:35.618Z,14.4
2022-09-15T06:22:42.139Z,14.4
2022-09-15T06:23:48.693Z,14.5
2022-09-15T06:25:20.825Z,14.5
2022-09-15T06:26:27.617Z,14.5
2022-09-15T06:27:34.402Z,14.6
2022-09-15T06:28:41.185Z,14.6
2022-09-15T06:29:47.988Z,14.6
2022-09-15T06:30:54.778Z,14.7
2022-09-15T06:32:01.564Z,14.7
2022-09-15T06:33:08.342Z,14.7
2022-09-15T06:34:15.160Z,14.8
2022-09-15T06:35:21.929Z,14.8
2022-09-15T06:36:28.800Z,14.8
2022-09-15T06:37:35.504Z,14.8
2022-09-15T06:38:42.289Z,14.8
2022-09-15T06:42:00.461Z,14.8
2022-09-15T06:43:39.130Z,14.7
2022-09-15T06:45:17.838Z,14.7
2022-09-15T06:46:25.099Z,14.7
2022-09-15T06:47:32.308Z,14.7
2022-09-15T06:49:11.055Z,14.7
2022-09-15T06:50:49.814Z,14.8
2022-09-15T06:52:28.595Z,14.8
2022-09-15T06:54:07.317Z,14.8
2022-09-15T06:55:46.155Z,14.8
2022-09-15T06:57:24.823Z,14.9
2022-09-15T06:59:03.593Z,14.9
2022-09-15T07:00:42.346Z,15
2022-09-15T07:02:53.083Z,15
2022-09-15T07:04:50.354Z,15.2
2022-09-15T07:08:07.810Z,15.3
2022-09-15T07:11:25.262Z,15.4
2022-09-15T07:14:42.706Z,15.6
2022-09-15T07:18:00.204Z,15.6
2022-09-15T07:21:17.590Z,15.6
2022-09-15T07:24:35.053Z,15.8
2022-09-15T07:27:52.488Z,15.9
2022-09-15T07:31:09.943Z,16
2022-09-15T07:34:27.401Z,16.2
2022-09-15T07:35:47.093Z,16.2
2022-09-15T07:37:44.849Z,16.3
2022-09-15T07:43:30.597Z,16.5
2022-09-15T07:46:48.096Z,16.7
2022-09-15T07:50:05.491Z,16.6
2022-09-15T07:53:22.939Z,16.8
2022-09-15T07:56:40.401Z,17.1
2022-09-15T07:59:57.789Z,17.2
2022-09-15T08:03:13.351Z,17.5
2022-09-15T08:04:19.775Z,18
2022-09-15T08:05:26.160Z,18.1
2022-09-15T08:06:32.642Z,18.3
2022-09-15T08:07:39.079Z,18.4
2022-09-15T08:08:45.468Z,18.4
2022-09-15T08:09:51.857Z,18.3
2022-09-15T08:10:58.341Z,18.4
2022-09-15T08:12:04.652Z,18.5
2022-09-15T08:13:11.046Z,18.4
2022-09-15T08:14:17.500Z,18.5
2022-09-15T08:15:23.893Z,18.3
2022-09-15T08:16:30.357Z,18.2
2022-09-15T08:17:36.743Z,18.2
2022-09-15T08:18:43.235Z,18.2
2022-09-15T08:19:49.638Z,18.2
2022-09-15T08:20:56.006Z,18.2
2022-09-15T08:22:02.413Z,18
2022-09-15T08:23:08.846Z,17.9
2022-09-15T08:24:15.245Z,17.9
2022-09-15T08:25:21.661Z,17.7
2022-09-15T08:26:28.021Z,17.5
2022-09-15T08:27:34.379Z,17.6
2022-09-15T08:28:40.793Z,17.5
2022-09-15T08:29:47.235Z,17.5
2022-09-15T08:30:53.695Z,17.5
2022-09-15T08:32:00.216Z,17.4
2022-09-15T08:33:06.763Z,17.4
2022-09-15T08:34:13.310Z,17.5
2022-09-15T08:35:19.870Z,17.5
2022-09-15T08:36:26.415Z,17.5
2022-09-15T08:37:32.975Z,17.6
2022-09-15T08:38:39.505Z,17.8
2022-09-15T08:39:46.064Z,17.8
2022-09-15T08:40:52.597Z,17.9
2022-09-15T08:41:59.251Z,18
2022-09-15T08:43:05.636Z,18
2022-09-15T08:44:12.142Z,18.2
2022-09-15T08:45:44.496Z,18.4
2022-09-15T08:46:51.264Z,18.5
2022-09-15T08:47:58.049Z,18.6
2022-09-15T08:49:04.841Z,18.5
2022-09-15T08:50:11.636Z,18.5
2022-09-15T08:51:18.297Z,18.6
2022-09-15T08:52:25.136Z,18.8
2022-09-15T08:53:31.912Z,19
2022-09-15T08:54:38.588Z,19.1
2022-09-15T08:55:45.376Z,19.3
2022-09-15T08:56:52.177Z,19.5
2022-09-15T08:57:58.913Z,19.6
2022-09-15T08:59:05.640Z,19.7
2022-09-15T09:02:23.816Z,19.6
2022-09-15T09:04:02.485Z,19.3
2022-09-15T09:05:41.252Z,19.2
2022-09-15T09:06:48.517Z,19.2
2022-09-15T09:07:55.659Z,19.1
2022-09-15T09:09:34.426Z,19
2022-09-15T09:11:13.174Z,18.6
2022-09-15T09:12:51.891Z,18.3
2022-09-15T09:14:30.546Z,18.1
2022-09-15T09:16:09.298Z,18.1
2022-09-15T09:17:48.084Z,18.3
2022-09-15T09:19:26.815Z,18.4
2022-09-15T09:21:05.602Z,18.6
2022-09-15T09:23:16.503Z,18.8
2022-09-15T09:25:11.847Z,19.1
2022-09-15T09:26:18.334Z,19.3
2022-09-15T09:27:24.858Z,19.1
2022-09-15T09:28:31.358Z,19.1
2022-09-15T09:29:37.918Z,18.9
2022-09-15T09:30:44.510Z,18.8
2022-09-15T09:31:51.007Z,18.8
2022-09-15T09:32:57.550Z,18.7
2022-09-15T09:34:04.114Z,18.8
2022-09-15T09:35:10.610Z,18.9
2022-09-15T09:36:17.111Z,19
2022-09-15T09:37:23.654Z,19.2
2022-09-15T09:38:30.176Z,19.4
2022-09-15T09:39:36.669Z,19.7
2022-09-15T09:40:43.212Z,19.8
2022-09-15T09:41:49.722Z,19.9
2022-09-15T09:42:56.274Z,20
2022-09-15T09:44:02.765Z,20.1
2022-09-15T09:45:09.295Z,20.3
2022-09-15T09:46:15.926Z,20.2
2022-09-15T09:47:22.424Z,20.3
2022-09-15T09:48:28.883Z,20.6
2022-09-15T09:49:35.478Z,20.8
2022-09-15T09:50:41.977Z,20.7
2022-09-15T09:51:48.417Z,20.5
2022-09-15T09:52:55.237Z,20.4
2022-09-15T09:54:01.994Z,20.4
2022-09-15T09:55:08.746Z,20.2
2022-09-15T09:56:15.646Z,20.1
2022-09-15T09:57:22.446Z,20
2022-09-15T09:58:29.254Z,19.7
2022-09-15T09:59:36.022Z,19.3
2022-09-15T10:00:42.832Z,19.1
2022-09-15T10:01:49.679Z,18.9
2022-09-15T10:02:56.430Z,18.5
2022-09-15T10:04:03.071Z,18.4
2022-09-15T10:05:09.821Z,18.2
2022-09-15T10:06:16.680Z,18.2
2022-09-15T10:08:55.074Z,18.1
2022-09-15T10:10:33.853Z,18.1
2022-09-15T10:12:12.649Z,18.3
2022-09-15T10:13:51.367Z,18.5
2022-09-15T10:14:58.787Z,18.7
2022-09-15T10:16:05.847Z,19
2022-09-15T10:17:44.720Z,19.2
2022-09-15T10:19:23.372Z,19.5
2022-09-15T10:21:02.033Z,19.8
2022-09-15T10:22:40.810Z,19.9
2022-09-15T10:24:19.488Z,19.9
2022-09-15T10:25:58.224Z,19.7
2022-09-15T10:27:36.993Z,19.7
2022-09-15T10:31:26.588Z,19.7
2022-09-15T10:32:33.099Z,19.8
2022-09-15T10:33:39.453Z,19.9
2022-09-15T10:34:45.883Z,20
2022-09-15T10:35:52.340Z,20
2022-09-15T10:36:58.706Z,20.1
2022-09-15T10:38:05.061Z,20.2
2022-09-15T10:39:11.472Z,20.2
2022-09-15T10:40:17.852Z,20.1
2022-09-15T10:41:24.254Z,20.2
2022-09-15T10:42:30.658Z,20.2
2022-09-15T10:43:37.064Z,20.3
2022-09-15T10:44:43.449Z,20.3
2022-09-15T10:45:49.981Z,20.4
2022-09-15T10:46:56.320Z,20.5
2022-09-15T10:48:02.731Z,20.6
2022-09-15T10:49:09.136Z,20.7
2022-09-15T10:50:15.534Z,20.9
2022-09-15T10:51:21.951Z,20.9
2022-09-15T10:52:28.281Z,21
2022-09-15T10:53:34.654Z,21
2022-09-15T10:54:41.143Z,21
2022-09-15T10:55:47.454Z,21.1
2022-09-15T10:56:53.947Z,21
2022-09-15T10:58:00.297Z,21
2022-09-15T10:59:06.709Z,20.8
2022-09-15T11:00:13.187Z,20.7
2022-09-15T11:01:19.779Z,20.6
2022-09-15T11:02:26.289Z,20.7
2022-09-15T11:03:32.696Z,20.7
2022-09-15T11:04:39.228Z,20.7
2022-09-15T11:05:45.777Z,20.7
2022-09-15T11:06:52.357Z,20.8
2022-09-15T11:07:58.796Z,20.9
2022-09-15T11:09:05.373Z,20.9
2022-09-15T11:10:11.904Z,20.9
2022-09-15T11:11:18.363Z,20.7
2022-09-15T11:12:24.914Z,20.7
2022-09-15T11:13:31.528Z,20.8
2022-09-15T11:15:20.821Z,20.9
2022-09-15T11:16:27.524Z,20.9
2022-09-15T11:17:34.277Z,20.9
2022-09-15T11:18:41.090Z,21.1
2022-09-15T11:19:47.819Z,21.2
2022-09-15T11:20:54.531Z,21.2
2022-09-15T11:22:01.290Z,21.3
2022-09-15T11:23:08.063Z,21.3
2022-09-15T11:24:14.824Z,21.4
2022-09-15T11:25:21.638Z,21.3
2022-09-15T11:26:28.359Z,21.3
2022-09-15T11:27:35.165Z,21.3
2022-09-15T11:28:41.947Z,21.1
2022-09-15T11:32:00.133Z,20.8
2022-09-15T11:33:35.592Z,20
2022-09-15T11:34:42.931Z,19.6
2022-09-15T11:36:21.661Z,19.5
2022-09-15T11:38:00.379Z,19.1
2022-09-15T11:39:38.350Z,18.8
2022-09-15T11:40:44.728Z,18.5
2022-09-15T11:41:51.121Z,18.5
2022-09-15T11:42:57.458Z,18.3
2022-09-15T11:44:03.856Z,18.2
2022-09-15T11:45:10.236Z,18.1
2022-09-15T11:46:16.715Z,18
2022-09-15T11:47:23.041Z,18
2022-09-15T11:48:29.447Z,17.9
2022-09-15T11:49:35.921Z,17.8
2022-09-15T11:50:42.284Z,17.8
2022-09-15T11:51:48.714Z,17.7
2022-09-15T11:52:55.097Z,17.7
2022-09-15T11:54:01.556Z,17.7
2022-09-15T11:55:07.910Z,17.7
2022-09-15T11:56:14.314Z,17.7
2022-09-15T11:57:20.698Z,17.8
2022-09-15T11:58:27.107Z,17.9
2022-09-15T11:59:33.517Z,18
2022-09-15T12:00:39.904Z,18.1
2022-09-15T12:01:46.268Z,18.3
2022-09-15T12:02:52.647Z,18.4
2022-09-15T12:03:59.107Z,18.6
2022-09-15T12:05:05.470Z,18.8
2022-09-15T12:06:12.004Z,18.9
2022-09-15T12:07:18.460Z,19
2022-09-15T12:08:24.929Z,19.1
2022-09-15T12:09:31.466Z,19.2
2022-09-15T12:10:38.116Z,19.4
2022-09-15T12:11:44.644Z,19.6
2022-09-15T12:12:51.144Z,19.9
2022-09-15T12:13:57.574Z,20.1
2022-09-15T12:15:04.060Z,20.3
2022-09-15T12:16:10.580Z,20.3
2022-09-15T12:17:17.199Z,20.2
2022-09-15T12:18:23.631Z,20.1
2022-09-15T12:19:30.165Z,20
2022-09-15T12:20:36.705Z,20
2022-09-15T12:22:25.997Z,19.9
2022-09-15T12:23:32.786Z,19.9
2022-09-15T12:24:39.587Z,19.9
2022-09-15T12:25:46.400Z,19.8
2022-09-15T12:26:53.196Z,19.7
2022-09-15T12:28:00.085Z,19.6
2022-09-15T12:29:06.812Z,19.5
2022-09-15T12:30:13.680Z,19.5
2022-09-15T12:31:20.419Z,19.4
2022-09-15T12:32:27.301Z,19.4
2022-09-15T12:33:34.123Z,19.3
2022-09-15T12:34:40.872Z,19.4
2022-09-15T12:35:47.593Z,19.4
2022-09-15T12:39:05.812Z,19.4
2022-09-15T12:40:44.471Z,19.6
2022-09-15T12:41:51.681Z,19.8
2022-09-15T12:42:58.926Z,19.8
2022-09-15T12:44:37.674Z,19.9
2022-09-15T12:46:16.457Z,20.5
2022-09-15T12:47:55.190Z,22.5
2022-09-15T12:49:33.848Z,24.7
2022-09-15T12:51:12.577Z,24.8
2022-09-15T12:52:51.310Z,24.5
2022-09-15T12:54:30.095Z,24.1
2022-09-15T12:56:08.840Z,23.8
2022-09-15T12:57:47.509Z,23.4
2022-09-15T12:59:27.331Z,23.8
2022-09-15T13:02:43.242Z,23.8
2022-09-15T13:03:49.998Z,23.4
2022-09-15T13:04:56.822Z,23
2022-09-15T13:06:03.502Z,22.8
2022-09-15T13:07:10.267Z,22.6
2022-09-15T13:08:16.956Z,22.4
2022-09-15T13:09:23.716Z,22.3
2022-09-15T13:10:30.479Z,22.5
2022-09-15T13:11:37.340Z,22.8
2022-09-15T13:12:44.087Z,23.4
2022-09-15T13:13:50.863Z,24.2
2022-09-15T13:14:57.551Z,25.5
2022-09-15T13:16:04.355Z,26.4
2022-09-15T13:17:11.075Z,26.9
2022-09-15T13:18:17.838Z,26.7
2022-09-15T13:19:24.556Z,25.8
2022-09-15T13:20:31.387Z,25.5
2022-09-15T13:21:38.111Z,24.8
2022-09-15T13:22:44.895Z,23.9
2022-09-15T13:23:51.685Z,23.2
2022-09-15T13:24:58.452Z,22.7
2022-09-15T13:26:05.308Z,22.2
2022-09-15T13:27:12.068Z,21.7
2022-09-15T13:28:18.937Z,21.3
2022-09-15T13:29:25.672Z,21
2022-09-15T13:31:37.897Z,20.9
2022-09-15T13:32:45.265Z,20.7
2022-09-15T13:33:52.467Z,20.6
2022-09-15T13:35:31.214Z,20.6
2022-09-15T13:37:09.959Z,20.1
2022-09-15T13:38:48.690Z,19.8
2022-09-15T13:40:27.434Z,19.5
2022-09-15T13:42:06.264Z,19.4
2022-09-15T13:43:44.104Z,19.2
2022-09-15T13:44:50.557Z,19.1
2022-09-15T13:45:56.955Z,19.1
2022-09-15T13:47:03.437Z,19
2022-09-15T13:48:09.889Z,19.1
2022-09-15T13:49:16.293Z,19
2022-09-15T13:50:22.754Z,19
2022-09-15T13:51:29.239Z,19
2022-09-15T13:52:35.733Z,19
2022-09-15T13:53:42.176Z,19
2022-09-15T13:54:48.627Z,19
2022-09-15T13:55:55.133Z,19.2
2022-09-15T13:57:01.547Z,19.3
2022-09-15T13:58:07.893Z,19.5
2022-09-15T13:59:14.352Z,19.6
2022-09-15T14:00:20.823Z,19.7
2022-09-15T14:01:27.282Z,19.7
2022-09-15T14:02:33.761Z,19.7
2022-09-15T14:03:40.149Z,19.6
2022-09-15T14:04:46.592Z,19.5
2022-09-15T14:05:53.104Z,19.4
2022-09-15T14:06:59.539Z,19.3
2022-09-15T14:08:05.934Z,19.3
2022-09-15T14:09:12.378Z,19.2
2022-09-15T14:10:18.850Z,19.1
2022-09-15T14:11:25.382Z,19
2022-09-15T14:12:31.968Z,18.9
2022-09-15T14:13:38.479Z,18.8
2022-09-15T14:14:45.073Z,18.7
2022-09-15T14:15:51.601Z,18.6
2022-09-15T14:16:58.111Z,18.6
2022-09-15T14:18:04.603Z,18.5
2022-09-15T14:19:11.097Z,18.4
2022-09-15T14:20:17.596Z,18.4
2022-09-15T14:21:24.098Z,18.3
2022-09-15T14:22:30.670Z,18.3
2022-09-15T14:23:37.159Z,18.2
2022-09-15T14:24:43.650Z,18.1
2022-09-15T14:26:15.704Z,18
2022-09-15T14:27:22.548Z,17.9
2022-09-15T14:28:29.256Z,17.9
2022-09-15T14:29:36.057Z,17.8
2022-09-15T14:30:42.716Z,17.7
2022-09-15T14:31:49.426Z,17.7
2022-09-15T14:32:56.198Z,17.7
2022-09-15T14:34:03.010Z,17.7
2022-09-15T14:35:09.798Z,17.7
2022-09-15T14:36:16.447Z,17.7
2022-09-15T14:37:23.374Z,17.7
2022-09-15T14:38:30.137Z,17.7
2022-09-15T14:39:36.778Z,17.8
2022-09-15T14:42:55.050Z,17.8
2022-09-15T14:44:33.757Z,17.9
2022-09-15T14:46:12.520Z,18
2022-09-15T14:47:19.663Z,18.1
2022-09-15T14:48:26.943Z,18.1
2022-09-15T14:50:05.608Z,18.2
2022-09-15T14:51:44.277Z,18.4
2022-09-15T14:53:23.129Z,18.7
2022-09-15T14:55:01.925Z,18.9
2022-09-15T14:56:40.470Z,19.1
2022-09-15T14:58:19.222Z,19.3
2022-09-15T14:59:57.988Z,19.3
2022-09-15T15:01:36.713Z,19.5
2022-09-15T15:03:47.797Z,19.5
2022-09-15T15:05:44.862Z,19.5
2022-09-15T15:09:00.362Z,19.4
2022-09-15T15:10:06.909Z,19
2022-09-15T15:11:13.350Z,18.9
2022-09-15T15:12:19.832Z,18.9
2022-09-15T15:13:26.248Z,18.9
2022-09-15T15:14:32.571Z,19
2022-09-15T15:15:39.108Z,19
2022-09-15T15:16:45.621Z,19
2022-09-15T15:17:51.982Z,19.1
2022-09-15T15:18:58.331Z,19.1
2022-09-15T15:20:04.835Z,19
2022-09-15T15:21:11.311Z,19
2022-09-15T15:22:17.659Z,19
2022-09-15T15:23:24.130Z,18.9
2022-09-15T15:24:30.660Z,18.9
2022-09-15T15:25:36.962Z,18.8
2022-09-15T15:26:43.411Z,18.7
2022-09-15T15:27:49.836Z,18.7
2022-09-15T15:28:56.330Z,18.6
2022-09-15T15:30:02.643Z,18.5
2022-09-15T15:31:09.054Z,18.4
2022-09-15T15:32:15.398Z,18.4
2022-09-15T15:33:21.776Z,18.3
2022-09-15T15:34:28.159Z,18.3
2022-09-15T15:35:34.531Z,18.2
2022-09-15T15:36:41.081Z,18.1
2022-09-15T15:37:47.550Z,18.1
2022-09-15T15:38:54.118Z,18.1
2022-09-15T15:40:00.654Z,18
2022-09-15T15:41:07.178Z,17.9
2022-09-15T15:42:13.699Z,18
2022-09-15T15:43:20.356Z,18
2022-09-15T15:44:26.900Z,18
2022-09-15T15:45:33.387Z,18
2022-09-15T15:46:39.905Z,18
2022-09-15T15:47:46.257Z,18.1
2022-09-15T15:48:52.932Z,18.1
2022-09-15T15:49:59.383Z,18.2
2022-09-15T15:51:48.764Z,18.3
2022-09-15T15:52:55.525Z,18.3
2022-09-15T15:54:02.122Z,18.4
2022-09-15T15:55:08.866Z,18.4
2022-09-15T15:56:15.681Z,18.5
2022-09-15T15:57:22.410Z,18.6
2022-09-15T15:58:29.241Z,18.6
2022-09-15T15:59:35.915Z,18.6
2022-09-15T16:00:42.733Z,18.6
2022-09-15T16:01:49.463Z,18.5
2022-09-15T16:02:56.230Z,18.5
2022-09-15T16:04:02.962Z,18.4
2022-09-15T16:05:09.645Z,18.5
2022-09-15T16:08:27.834Z,18.5
2022-09-15T16:10:06.502Z,18.4
2022-09-15T16:11:13.735Z,18.4
2022-09-15T16:12:20.934Z,18.3
2022-09-15T16:13:59.636Z,18.3
2022-09-15T16:15:38.360Z,18.2
2022-09-15T16:17:17.053Z,18.1
2022-09-15T16:18:55.790Z,18
2022-09-15T16:20:34.478Z,17.9
2022-09-15T16:22:13.180Z,17.8
2022-09-15T16:23:51.878Z,17.7
2022-09-15T16:25:30.626Z,17.7
2022-09-15T16:27:09.380Z,17.6
2022-09-15T16:28:49.179Z,17.6
2022-09-15T16:32:04.814Z,17.6
2022-09-15T16:33:11.353Z,17.6
2022-09-15T16:34:17.876Z,17.6
2022-09-15T16:35:24.405Z,17.6
2022-09-15T16:36:30.933Z,17.5
2022-09-15T16:37:37.466Z,17.5
2022-09-15T16:38:43.983Z,17.4
2022-09-15T16:39:50.502Z,17.4
2022-09-15T16:40:57.051Z,17.4
2022-09-15T16:42:03.569Z,17.4
2022-09-15T16:43:10.159Z,17.4
2022-09-15T16:44:16.660Z,17.3
2022-09-15T16:45:23.208Z,17.3
2022-09-15T16:46:29.752Z,17.2
2022-09-15T16:47:36.306Z,17.3
2022-09-15T16:48:42.837Z,17.2
2022-09-15T16:49:49.385Z,17.3
2022-09-15T16:52:02.471Z,17.3
2022-09-15T16:53:09.012Z,17.3
2022-09-15T16:54:15.568Z,17.2
2022-09-15T16:55:22.122Z,17.2
2022-09-15T16:56:28.664Z,17.2
2022-09-15T16:57:35.215Z,17.1
2022-09-15T16:58:41.763Z,17.1
2022-09-15T16:59:48.479Z,17
2022-09-15T17:00:55.259Z,17
2022-09-15T17:02:02.062Z,17
2022-09-15T17:03:08.825Z,16.9
2022-09-15T17:04:15.614Z,16.8
2022-09-15T17:05:22.389Z,16.7
2022-09-15T17:06:29.248Z,16.6
2022-09-15T17:07:35.971Z,16.6
2022-09-15T17:08:42.735Z,16.6
2022-09-15T17:09:49.506Z,16.6
2022-09-15T17:10:56.216Z,16.6
2022-09-15T17:12:02.991Z,16.6
2022-09-15T17:13:09.761Z,16.6
2022-09-15T17:15:50.190Z,16.6
2022-09-15T17:17:28.943Z,16.5
2022-09-15T17:19:07.696Z,16.5
2022-09-15T17:20:46.454Z,16.5
2022-09-15T17:21:53.697Z,16.5
2022-09-15T17:23:00.936Z,16.4
2022-09-15T17:24:39.697Z,16.4
2022-09-15T17:26:18.431Z,16.3
2022-09-15T17:27:57.189Z,16.3
2022-09-15T17:29:35.878Z,16.2
2022-09-15T17:31:14.580Z,16.1
2022-09-15T17:32:53.287Z,16.1
2022-09-15T17:34:31.991Z,16.1
2022-09-15T17:38:21.733Z,16.1
2022-09-15T17:39:28.548Z,16
2022-09-15T17:40:35.297Z,16
2022-09-15T17:41:42.061Z,16
2022-09-15T17:42:48.833Z,15.9
2022-09-15T17:43:55.597Z,15.9
2022-09-15T17:45:02.366Z,15.9
2022-09-15T17:46:09.130Z,15.9
2022-09-15T17:47:15.907Z,15.8
2022-09-15T17:48:22.626Z,15.8
2022-09-15T17:49:29.320Z,15.8
2022-09-15T17:50:36.131Z,15.8
2022-09-15T17:51:42.962Z,15.7
2022-09-15T17:52:49.748Z,15.7
2022-09-15T17:53:56.554Z,15.7
2022-09-15T17:55:03.330Z,15.7
2022-09-15T17:56:10.121Z,15.6
2022-09-15T17:57:16.912Z,15.7
2022-09-15T17:58:23.683Z,15.6
2022-09-15T17:59:30.475Z,15.7